Time;durP1;ratioP1;P1;durP2;ratioP2;P2;SDS_P1;SDS_P2;PMS_P1;PMS_P2;Temp;Humidity;BMP_temperature;BMP_pressure;BME280_temperature;BME280_humidity;BME280_pressure;Samples;Min_cycle;Max_cycle;Signal;HPM_P1;HPM_P2
2023/04/23 00:00:05;;;;;;;81.95;38.45;;;;;;;-143.48;100.00;118439.88;5054101;28;20036;-28
2023/04/23 00:02:33;;;;;;;80.22;37.92;;;;;;;-143.48;100.00;118439.88;5053611;28;20507;-27
2023/04/23 00:05:03;;;;;;;88.75;39.15;;;;;;;-143.48;100.00;118439.88;5053844;28;20365;-27
2023/04/23 00:07:31;;;;;;;85.25;39.22;;;;;;;-143.48;100.00;118439.88;5053938;28;20028;-28
2023/04/23 00:09:58;;;;;;;84.38;40.20;;;;;;;-143.48;100.00;118439.88;5054171;28;20025;-28
2023/04/23 00:12:24;;;;;;;88.20;39.17;;;;;;;-143.48;100.00;118439.88;5054164;28;20032;-31
2023/04/23 00:14:50;;;;;;;85.05;39.47;;;;;;;-143.48;100.00;118439.88;5053927;28;20414;-28
2023/04/23 00:17:15;;;;;;;88.57;39.38;;;;;;;-143.48;100.00;118439.88;5053842;28;20079;-28
2023/04/23 00:19:40;;;;;;;87.45;39.88;;;;;;;-143.48;100.00;118439.88;5053454;28;20029;-28
2023/04/23 00:22:06;;;;;;;84.65;38.80;;;;;;;-143.48;100.00;118439.88;5053818;28;20104;-28
2023/04/23 00:24:33;;;;;;;85.00;38.53;;;;;;;-143.48;100.00;118439.88;5053798;28;20410;-27
2023/04/23 00:26:58;;;;;;;91.75;40.60;;;;;;;-143.48;100.00;118439.88;5053718;28;20025;-27
2023/04/23 00:29:23;;;;;;;86.97;39.95;;;;;;;-143.48;100.00;118439.88;5053986;28;20025;-28
2023/04/23 00:31:49;;;;;;;87.47;39.15;;;;;;;-143.48;100.00;118439.88;5053736;28;20383;-28
2023/04/23 00:34:14;;;;;;;93.82;41.63;;;;;;;-143.48;100.00;118439.88;5053038;28;20032;-28
2023/04/23 00:36:39;;;;;;;87.10;39.97;;;;;;;-143.48;100.00;118439.88;5053368;28;20029;-28
2023/04/23 00:39:05;;;;;;;90.90;40.45;;;;;;;-143.48;100.00;118439.88;5053335;28;20017;-27
2023/04/23 00:41:30;;;;;;;92.63;41.35;;;;;;;-143.48;100.00;118439.88;5053559;28;20029;-29
2023/04/23 00:43:56;;;;;;;97.55;41.58;;;;;;;-143.48;100.00;118439.88;5053830;28;20364;-28
2023/04/23 00:46:24;;;;;;;92.70;41.13;;;;;;;-143.48;100.00;118439.88;5053286;28;20021;-28
2023/04/23 00:48:49;;;;;;;92.32;40.60;;;;;;;-143.48;100.00;118439.88;5053110;28;20525;-28
2023/04/23 00:51:15;;;;;;;96.93;40.30;;;;;;;-143.48;100.00;118439.88;5053737;28;20072;-28
2023/04/23 00:53:40;;;;;;;93.10;40.38;;;;;;;-143.48;100.00;118439.88;5053136;28;20472;-29
2023/04/23 00:56:07;;;;;;;101.47;42.60;;;;;;;-143.48;100.00;118439.88;5053406;28;20044;-28
2023/04/23 00:58:33;;;;;;;89.63;41.47;;;;;;;-143.48;100.00;118439.88;5053477;28;20431;-28
2023/04/23 01:01:01;;;;;;;89.72;40.03;;;;;;;-143.48;100.00;118439.88;5053341;28;20049;-28
2023/04/23 01:03:28;;;;;;;90.40;40.08;;;;;;;-143.48;100.00;118439.88;5052993;28;20024;-28
2023/04/23 01:05:54;;;;;;;89.22;39.50;;;;;;;-143.48;100.00;118439.88;5053382;28;20391;-28
2023/04/23 01:08:22;;;;;;;90.13;39.85;;;;;;;-143.48;100.00;118439.88;5053328;28;20078;-28
2023/04/23 01:10:47;;;;;;;90.70;40.17;;;;;;;-143.48;100.00;118439.88;5052987;28;20033;-28
2023/04/23 01:13:13;;;;;;;93.10;40.85;;;;;;;-143.48;100.00;118439.88;5053022;28;20021;-28
2023/04/23 01:15:38;;;;;;;93.90;40.83;;;;;;;-143.48;100.00;118439.88;5051642;28;20025;-28
2023/04/23 01:18:06;;;;;;;90.15;40.08;;;;;;;-143.48;100.00;118439.88;5052904;28;20044;-28
2023/04/23 01:20:32;;;;;;;86.80;39.28;;;;;;;-143.48;100.00;118439.88;5053193;28;20516;-28
2023/04/23 01:22:58;;;;;;;82.20;38.15;;;;;;;-143.48;100.00;118439.88;5053395;28;20017;-29
2023/04/23 01:25:23;;;;;;;81.82;37.22;;;;;;;-143.48;100.00;118439.88;5052780;28;20036;-29
2023/04/23 01:27:49;;;;;;;81.28;37.55;;;;;;;-143.48;100.00;118439.88;5053619;28;20025;-28
2023/04/23 01:30:15;;;;;;;81.95;37.38;;;;;;;-143.48;100.00;118439.88;5053031;28;20040;-28
2023/04/23 01:32:41;;;;;;;83.43;38.65;;;;;;;-143.48;100.00;118439.88;5052809;28;20124;-29
2023/04/23 01:35:07;;;;;;;79.10;36.78;;;;;;;-143.48;100.00;118439.88;5052715;28;20029;-28
2023/04/23 01:37:34;;;;;;;80.40;36.55;;;;;;;-143.48;100.00;118439.88;5052747;28;20017;-28
2023/04/23 01:39:59;;;;;;;74.43;36.00;;;;;;;-143.48;100.00;118439.88;5052720;28;20021;-28
2023/04/23 01:42:25;;;;;;;77.78;36.20;;;;;;;-143.48;100.00;118439.88;5053339;28;20017;-28
2023/04/23 01:44:51;;;;;;;73.53;35.60;;;;;;;-143.48;100.00;118439.88;5053256;28;20477;-29
2023/04/23 01:47:18;;;;;;;70.75;35.13;;;;;;;-143.48;100.00;118439.88;5055908;28;20045;-28
2023/04/23 01:49:43;;;;;;;71.60;35.70;;;;;;;-143.48;100.00;118439.88;5056742;28;20071;-29
2023/04/23 01:52:09;;;;;;;77.97;38.42;;;;;;;-143.48;100.00;118439.88;5056614;28;20057;-29
2023/04/23 01:54:34;;;;;;;77.30;35.40;;;;;;;-143.48;100.00;118439.88;5056387;28;20422;-28
2023/04/23 01:57:00;;;;;;;73.82;34.80;;;;;;;-143.48;100.00;118439.88;5056211;28;20036;-28
2023/04/23 01:59:25;;;;;;;69.93;34.75;;;;;;;-143.48;100.00;118439.88;5056504;28;20025;-28
2023/04/23 02:01:51;;;;;;;65.60;33.60;;;;;;;-143.48;100.00;118439.88;5056717;28;20029;-29
2023/04/23 02:04:17;;;;;;;69.90;35.58;;;;;;;-143.48;100.00;118439.88;5056065;28;20013;-28
2023/04/23 02:06:46;;;;;;;72.20;34.22;;;;;;;-143.48;100.00;118439.88;5056395;28;20032;-29
2023/04/23 02:09:11;;;;;;;72.13;35.65;;;;;;;-143.48;100.00;118439.88;5056255;28;20105;-29
2023/04/23 02:11:37;;;;;;;71.80;35.20;;;;;;;-143.48;100.00;118439.88;5055987;28;20056;-29
2023/04/23 02:14:04;;;;;;;67.65;33.92;;;;;;;-143.48;100.00;118439.88;5056481;28;20100;-28
2023/04/23 02:16:30;;;;;;;72.07;34.55;;;;;;;-143.48;100.00;118439.88;5056127;28;20361;-28
2023/04/23 02:18:56;;;;;;;69.50;34.28;;;;;;;-143.48;100.00;118439.88;5055713;28;20040;-28
2023/04/23 02:21:23;;;;;;;68.13;34.05;;;;;;;-143.48;100.00;118439.88;5056365;28;20032;-29
2023/04/23 02:23:48;;;;;;;67.60;32.67;;;;;;;-143.48;100.00;118439.88;5055682;28;20024;-28
2023/04/23 02:26:13;;;;;;;69.78;33.78;;;;;;;-143.48;100.00;118439.88;5055699;28;20025;-29
2023/04/23 02:28:39;;;;;;;67.78;33.13;;;;;;;-143.48;100.00;118439.88;5056208;28;20052;-28
2023/04/23 02:31:05;;;;;;;67.35;32.42;;;;;;;-143.48;100.00;118439.88;5055872;28;20029;-28
2023/04/23 02:33:30;;;;;;;69.45;32.13;;;;;;;-143.48;100.00;118439.88;5055484;28;20116;-29
2023/04/23 02:35:56;;;;;;;65.25;33.67;;;;;;;-143.48;100.00;118439.88;5055509;28;20029;-28
2023/04/23 02:38:21;;;;;;;63.60;31.77;;;;;;;-143.48;100.00;118439.88;5055426;28;20029;-28
2023/04/23 02:40:46;;;;;;;63.22;30.52;;;;;;;-143.48;100.00;118439.88;5055843;28;20108;-28
2023/04/23 02:43:11;;;;;;;66.05;31.70;;;;;;;-143.48;100.00;118439.88;5055703;28;20040;-28
2023/04/23 02:45:37;;;;;;;59.40;30.80;;;;;;;-143.48;100.00;118439.88;5055589;28;20033;-28
2023/04/23 02:48:03;;;;;;;58.42;30.10;;;;;;;-143.48;100.00;118439.88;5055242;28;20403;-28
2023/04/23 02:50:28;;;;;;;57.85;29.83;;;;;;;-143.48;100.00;118439.88;5055459;28;20025;-28
2023/04/23 02:52:53;;;;;;;59.75;30.80;;;;;;;-143.48;100.00;118439.88;5055341;28;20522;-28
2023/04/23 02:55:19;;;;;;;62.10;29.48;;;;;;;-143.48;100.00;118439.88;5055182;28;20021;-28
2023/04/23 02:57:44;;;;;;;60.47;30.77;;;;;;;-143.48;100.00;118439.88;5054968;28;20025;-29
2023/04/23 03:00:11;;;;;;;59.15;29.42;;;;;;;-143.48;100.00;118439.88;5055331;28;20017;-28
2023/04/23 03:02:37;;;;;;;58.38;28.98;;;;;;;-143.48;100.00;118439.88;5055119;28;20021;-28
2023/04/23 03:05:03;;;;;;;60.25;29.35;;;;;;;-143.48;100.00;118439.88;5053704;28;20526;-28
2023/04/23 03:07:28;;;;;;;57.25;28.55;;;;;;;-143.48;100.00;118439.88;5055209;28;20029;-28
2023/04/23 03:09:54;;;;;;;59.33;29.77;;;;;;;-143.48;100.00;118439.88;5055433;28;20510;-28
2023/04/23 03:12:19;;;;;;;59.20;29.17;;;;;;;-143.48;100.00;118439.88;5054804;28;20021;-38
2023/04/23 03:14:44;;;;;;;61.20;29.42;;;;;;;-143.48;100.00;118439.88;5054671;28;20025;-36
2023/04/23 03:17:10;;;;;;;56.38;29.08;;;;;;;-143.48;100.00;118439.88;5055008;28;20017;-38
2023/04/23 03:19:35;;;;;;;62.95;29.42;;;;;;;-143.48;100.00;118439.88;5054705;28;20517;-34
2023/04/23 03:22:04;;;;;;;54.08;27.67;;;;;;;-143.48;100.00;118439.88;5054926;28;20032;-28
2023/04/23 03:24:30;;;;;;;56.92;28.27;;;;;;;-143.48;100.00;118439.88;5055269;28;20028;-37
2023/04/23 03:26:57;;;;;;;51.03;26.77;;;;;;;-143.48;100.00;118439.88;5053189;28;20118;-38
2023/04/23 03:29:22;;;;;;;52.30;27.08;;;;;;;-143.48;100.00;118439.88;5054563;28;20028;-37
2023/04/23 03:31:48;;;;;;;57.38;28.30;;;;;;;-143.48;100.00;118439.88;5054482;28;20033;-37
2023/04/23 03:34:13;;;;;;;55.17;27.95;;;;;;;-143.48;100.00;118439.88;5054869;28;20052;-37
2023/04/23 03:36:39;;;;;;;53.13;27.77;;;;;;;-143.48;100.00;118439.88;5054557;28;20056;-36
2023/04/23 03:39:04;;;;;;;57.42;27.77;;;;;;;-143.48;100.00;118439.88;5054590;28;20096;-38
2023/04/23 03:41:30;;;;;;;54.50;26.67;;;;;;;-143.48;100.00;118439.88;5054591;28;20028;-35
2023/04/23 03:43:55;;;;;;;56.85;27.45;;;;;;;-143.48;100.00;118439.88;5054524;28;20068;-37
2023/04/23 03:46:20;;;;;;;53.13;27.63;;;;;;;-143.48;100.00;118439.88;5054084;28;20464;-37
2023/04/23 03:48:46;;;;;;;52.80;26.55;;;;;;;-143.48;100.00;118439.88;5054031;28;20056;-37
2023/04/23 03:51:11;;;;;;;54.72;27.02;;;;;;;-143.48;100.00;118439.88;5054143;28;20111;-37
2023/04/23 03:53:36;;;;;;;54.97;28.02;;;;;;;-143.48;100.00;118439.88;5054204;28;20025;-37
2023/04/23 03:56:03;;;;;;;51.88;26.45;;;;;;;-143.48;100.00;118439.88;5053938;28;20122;-37
2023/04/23 03:58:28;;;;;;;58.60;29.02;;;;;;;-143.48;100.00;118439.88;5054453;28;20056;-34
2023/04/23 04:00:53;;;;;;;53.85;27.27;;;;;;;-143.48;100.00;118439.88;5053867;28;20125;-36
2023/04/23 04:03:18;;;;;;;56.92;28.77;;;;;;;-143.48;100.00;118439.88;5053771;28;20017;-34
2023/04/23 04:05:44;;;;;;;59.78;27.63;;;;;;;-143.48;100.00;118439.88;5054117;28;20036;-38
2023/04/23 04:08:10;;;;;;;53.35;28.23;;;;;;;-143.48;100.00;118439.88;5053265;28;20116;-34
2023/04/23 04:10:35;;;;;;;53.85;28.20;;;;;;;-143.48;100.00;118439.88;5053888;28;20021;-38
2023/04/23 04:13:00;;;;;;;52.08;27.27;;;;;;;-143.48;100.00;118439.88;5054007;28;20478;-33
2023/04/23 04:15:26;;;;;;;52.35;26.88;;;;;;;-143.48;100.00;118439.88;5053689;28;20108;-33
2023/04/23 04:17:51;;;;;;;55.05;27.13;;;;;;;-143.48;100.00;118439.88;5054226;28;20052;-33
2023/04/23 04:20:17;;;;;;;53.85;26.48;;;;;;;-143.48;100.00;118439.88;5053715;28;20048;-33
2023/04/23 04:22:42;;;;;;;53.30;26.67;;;;;;;-143.48;100.00;118439.88;5054168;28;20024;-35
2023/04/23 04:25:08;;;;;;;51.85;27.40;;;;;;;-143.48;100.00;118439.88;5053592;28;20036;-33
2023/04/23 04:27:34;;;;;;;56.53;26.80;;;;;;;-143.48;100.00;118439.88;5053787;28;20066;-33
2023/04/23 04:30:00;;;;;;;53.22;28.08;;;;;;;-143.48;100.00;118439.88;5053667;28;20017;-33
2023/04/23 04:32:26;;;;;;;53.95;27.08;;;;;;;-143.48;100.00;118439.88;5053397;28;20085;-33
2023/04/23 04:34:52;;;;;;;52.17;26.17;;;;;;;-143.48;100.00;118439.88;5053673;28;20024;-28
2023/04/23 04:37:19;;;;;;;51.15;26.13;;;;;;;-143.48;100.00;118439.88;5053292;28;20017;-28
2023/04/23 04:39:44;;;;;;;51.00;25.08;;;;;;;-143.48;100.00;118439.88;5053631;28;20462;-28
2023/04/23 04:42:11;;;;;;;53.67;26.25;;;;;;;-143.48;100.00;118439.88;5053220;28;20064;-27
2023/04/23 04:44:37;;;;;;;49.47;26.55;;;;;;;-143.48;100.00;118439.88;5053175;28;20040;-32
2023/04/23 04:47:02;;;;;;;47.78;25.60;;;;;;;-143.48;100.00;118439.88;5053275;28;20049;-28
2023/04/23 04:49:27;;;;;;;46.58;25.75;;;;;;;-143.48;100.00;118439.88;5051981;28;20114;-27
2023/04/23 04:51:53;;;;;;;50.67;25.17;;;;;;;-143.48;100.00;118439.88;5053440;28;20032;-28
2023/04/23 04:54:19;;;;;;;46.50;25.65;;;;;;;-143.48;100.00;118439.88;5053418;28;20025;-27
2023/04/23 04:56:44;;;;;;;46.28;26.27;;;;;;;-143.48;100.00;118439.88;5053358;28;20032;-27
2023/04/23 04:59:09;;;;;;;50.85;25.48;;;;;;;-143.48;100.00;118439.88;5053673;28;20025;-27
2023/04/23 05:01:35;;;;;;;50.58;25.63;;;;;;;-143.48;100.00;118439.88;5053382;28;20025;-27
2023/04/23 05:04:01;;;;;;;42.70;25.08;;;;;;;-143.48;100.00;118439.88;5053205;28;20013;-27
2023/04/23 05:06:27;;;;;;;52.45;25.92;;;;;;;-143.48;100.00;118439.88;5053100;28;20035;-28
2023/04/23 05:08:53;;;;;;;45.67;24.73;;;;;;;-143.48;100.00;118439.88;5053062;28;20025;-27
2023/04/23 05:11:19;;;;;;;46.03;25.08;;;;;;;-143.48;100.00;118439.88;5053071;28;20395;-27
2023/04/23 05:13:47;;;;;;;42.40;24.10;;;;;;;-143.48;100.00;118439.88;5053101;28;20032;-27
2023/04/23 05:16:12;;;;;;;43.70;24.52;;;;;;;-143.48;100.00;118439.88;5053188;28;20032;-27
2023/04/23 05:18:39;;;;;;;42.70;24.67;;;;;;;-143.48;100.00;118439.88;5052955;28;20029;-28
2023/04/23 05:21:05;;;;;;;47.53;25.25;;;;;;;-143.48;100.00;118439.88;5054633;28;20107;-27
2023/04/23 05:23:31;;;;;;;45.38;23.98;;;;;;;-143.48;100.00;118439.88;5056861;28;20120;-28
2023/04/23 05:25:57;;;;;;;42.22;24.52;;;;;;;-143.48;100.00;118439.88;5056688;28;20044;-28
2023/04/23 05:28:23;;;;;;;41.80;23.50;;;;;;;-143.48;100.00;118439.88;5057024;28;20476;-27
2023/04/23 05:30:49;;;;;;;41.30;24.00;;;;;;;-143.48;100.00;118439.88;5056705;28;20056;-27
2023/04/23 05:33:14;;;;;;;41.45;22.45;;;;;;;-143.48;100.00;118439.88;5056615;28;20033;-28
2023/04/23 05:35:40;;;;;;;37.53;22.80;;;;;;;-143.48;100.00;118439.88;5056596;28;20483;-27
2023/04/23 05:38:05;;;;;;;38.88;22.77;;;;;;;-143.48;100.00;118439.88;5055797;28;20028;-32
2023/04/23 05:40:31;;;;;;;38.20;22.35;;;;;;;-143.48;100.00;118439.88;5056986;28;20052;-28
2023/04/23 05:43:00;;;;;;;41.08;22.42;;;;;;;-143.48;100.00;118439.88;5056521;28;20373;-27
2023/04/23 05:45:25;;;;;;;40.03;22.50;;;;;;;-143.48;100.00;118439.88;5056476;28;20056;-27
2023/04/23 05:47:50;;;;;;;43.65;22.52;;;;;;;-143.48;100.00;118439.88;5056322;28;20080;-27
2023/04/23 05:50:16;;;;;;;37.55;22.30;;;;;;;-143.48;100.00;118439.88;5056848;28;20025;-27
2023/04/23 05:52:42;;;;;;;37.42;20.85;;;;;;;-143.48;100.00;118439.88;5056750;28;20032;-27
2023/04/23 05:55:08;;;;;;;35.38;21.38;;;;;;;-143.48;100.00;118439.88;5056402;28;20028;-27
2023/04/23 05:57:35;;;;;;;39.25;22.55;;;;;;;-143.48;100.00;118439.88;5055052;28;20028;-28
2023/04/23 06:00:00;;;;;;;29.38;19.48;;;;;;;-143.48;85.28;118439.88;5056347;28;20021;-28
2023/04/23 06:02:27;;;;;;;25.83;18.83;;;;;;;-143.48;79.62;118439.88;5056006;28;20028;-28
2023/04/23 06:04:52;;;;;;;24.38;17.63;;;;;;;-143.48;76.23;118439.88;5054955;28;20099;-28
2023/04/23 06:07:18;;;;;;;23.25;16.58;;;;;;;-143.48;69.06;118439.88;5056385;28;20029;-28
2023/04/23 06:09:43;;;;;;;21.33;16.35;;;;;;;-143.48;70.17;118439.88;5056238;28;20070;-28
2023/04/23 06:12:11;;;;;;;20.02;16.13;;;;;;;-143.48;74.00;118439.88;5056193;28;20147;-30
2023/04/23 06:14:37;;;;;;;22.20;16.25;;;;;;;-143.48;77.89;118439.88;5055808;28;20036;-28
2023/04/23 06:17:02;;;;;;;18.67;15.18;;;;;;;-143.48;68.73;118439.88;5055900;28;20463;-28
2023/04/23 06:19:27;;;;;;;18.52;14.77;;;;;;;-143.48;67.54;118439.88;5055851;28;20075;-28
2023/04/23 06:21:53;;;;;;;19.00;14.60;;;;;;;-143.48;66.30;118439.88;5056039;28;20017;-28
2023/04/23 06:24:18;;;;;;;18.45;14.27;;;;;;;-143.48;63.55;118439.88;5056013;28;20434;-28
2023/04/23 06:26:44;;;;;;;19.20;14.68;;;;;;;-143.48;64.46;118439.88;5055680;28;20036;-28
2023/04/23 06:29:09;;;;;;;18.65;13.88;;;;;;;-143.48;58.82;118439.88;5055867;28;20103;-28
2023/04/23 06:31:35;;;;;;;19.27;14.60;;;;;;;-143.48;62.33;118439.88;5055522;28;20063;-28
2023/04/23 06:34:00;;;;;;;15.45;13.02;;;;;;;-143.48;59.87;118439.88;5055467;28;20108;-28
2023/04/23 06:36:26;;;;;;;16.25;12.82;;;;;;;-143.48;59.98;118439.88;5055951;28;20024;-28
2023/04/23 06:38:51;;;;;;;14.77;12.77;;;;;;;-143.48;61.56;118439.88;5055543;28;20037;-28
2023/04/23 06:41:16;;;;;;;16.83;12.80;;;;;;;-143.48;57.81;118439.88;5055630;28;20021;-28
2023/04/23 06:43:42;;;;;;;17.45;12.15;;;;;;;-143.48;56.76;118439.88;5055155;28;20033;-28
2023/04/23 06:46:07;;;;;;;13.60;11.90;;;;;;;-143.48;59.09;118439.88;5053915;28;20025;-28
2023/04/23 06:48:33;;;;;;;16.80;11.85;;;;;;;-143.48;61.79;118439.88;5054625;28;20076;-27
2023/04/23 06:50:59;;;;;;;16.83;12.25;;;;;;;-143.48;58.23;118439.88;5054833;28;20060;-28
2023/04/23 06:53:24;;;;;;;13.80;11.68;;;;;;;-143.48;55.66;118439.88;5055273;28;20029;-28
2023/04/23 06:55:50;;;;;;;13.35;10.80;;;;;;;-143.48;57.72;118439.88;5055143;28;20357;-29
2023/04/23 06:58:17;;;;;;;14.15;10.98;;;;;;;-143.48;57.63;118439.88;5055330;28;20029;-28
2023/04/23 07:00:42;;;;;;;14.45;11.20;;;;;;;-143.48;58.23;118439.88;5055304;28;20025;-28
2023/04/23 07:03:07;;;;;;;13.57;10.52;;;;;;;-143.48;54.24;118439.88;5053619;28;20048;-28
2023/04/23 07:05:32;;;;;;;12.95;10.70;;;;;;;-143.48;55.58;118439.88;5053547;28;20063;-29
2023/04/23 07:07:58;;;;;;;12.75;9.88;;;;;;;-143.48;54.16;118439.88;5055258;28;20025;-28
2023/04/23 07:10:24;;;;;;;13.65;10.45;;;;;;;-143.48;59.82;118439.88;5055112;28;20431;-28
2023/04/23 07:12:49;;;;;;;11.05;9.20;;;;;;;-143.48;57.47;118439.88;5053548;28;20100;-28
2023/04/23 07:15:15;;;;;;;14.15;9.93;;;;;;;-143.48;55.83;118439.88;5054781;28;20052;-28
2023/04/23 07:17:40;;;;;;;11.93;9.32;;;;;;;-143.48;52.27;118439.88;5054758;28;20115;-28
2023/04/23 07:20:07;;;;;;;10.63;9.10;;;;;;;-143.48;53.44;118439.88;5055124;28;20025;-28
2023/04/23 07:22:32;;;;;;;10.25;9.15;;;;;;;-143.48;54.95;118439.88;5054938;28;20021;-28
2023/04/23 07:24:58;;;;;;;11.13;8.50;;;;;;;-143.48;52.81;118439.88;5054493;28;20036;-28
2023/04/23 07:27:24;;;;;;;10.57;8.60;;;;;;;-143.48;50.66;118439.88;5054614;28;20021;-29
2023/04/23 07:29:50;;;;;;;14.82;8.05;;;;;;;-143.48;53.33;118439.88;5053309;28;20415;-29
2023/04/23 07:32:15;;;;;;;10.48;7.93;;;;;;;-143.48;51.48;118439.88;5054607;28;20028;-29
2023/04/23 07:34:41;;;;;;;9.35;7.25;;;;;;;-143.48;53.79;118439.88;5054277;28;20119;-28
2023/04/23 07:37:06;;;;;;;9.07;6.80;;;;;;;-143.48;51.61;118439.88;5054785;28;20078;-29
2023/04/23 07:39:32;;;;;;;9.80;6.68;;;;;;;-143.48;52.67;118439.88;5054229;28;20036;-30
2023/04/23 07:41:57;;;;;;;11.27;6.80;;;;;;;-143.48;52.77;118439.88;5054321;28;20036;-28
2023/04/23 07:44:23;;;;;;;10.13;6.38;;;;;;;-143.48;52.53;118439.88;5053478;28;20373;-28
2023/04/23 07:46:49;;;;;;;11.57;6.60;;;;;;;-143.48;50.64;118439.88;5054058;28;20078;-28
2023/04/23 07:49:15;;;;;;;8.68;5.93;;;;;;;-143.48;52.11;118439.88;5054079;28;20103;-28
2023/04/23 07:51:40;;;;;;;10.93;6.22;;;;;;;-143.48;53.09;118439.88;5054337;28;20035;-28
2023/04/23 07:54:07;;;;;;;12.55;6.28;;;;;;;-143.48;51.56;118439.88;5054056;28;20025;-28
2023/04/23 07:56:32;;;;;;;9.10;6.22;;;;;;;-143.48;50.61;118439.88;5054701;28;20025;-28
2023/04/23 07:58:58;;;;;;;12.02;5.95;;;;;;;-143.48;51.19;118439.88;5054035;28;20498;-28
2023/04/23 08:01:24;;;;;;;13.15;5.40;;;;;;;-143.48;51.31;118439.88;5053624;28;20029;-28
2023/04/23 08:03:49;;;;;;;12.13;5.43;;;;;;;-143.48;52.16;118439.88;5053010;28;20024;-28
2023/04/23 08:06:15;;;;;;;11.20;5.63;;;;;;;-143.48;55.90;118439.88;5052389;28;20035;-28
2023/04/23 08:08:40;;;;;;;13.15;5.78;;;;;;;-143.48;52.69;118439.88;5051823;28;20075;-28
2023/04/23 08:11:06;;;;;;;10.38;5.45;;;;;;;-143.48;55.73;118439.88;5054129;28;20085;-28
2023/04/23 08:13:31;;;;;;;13.00;5.68;;;;;;;-143.48;55.57;118439.88;5053868;28;20032;-28
2023/04/23 08:15:57;;;;;;;10.93;5.50;;;;;;;-143.48;56.29;118439.88;5053641;28;20029;-28
2023/04/23 08:18:22;;;;;;;11.88;5.28;;;;;;;-143.48;55.80;118439.88;5054222;28;20029;-29
2023/04/23 08:20:48;;;;;;;13.15;5.22;;;;;;;-143.48;57.92;118439.88;5053594;28;20017;-30
2023/04/23 08:23:13;;;;;;;10.20;5.55;;;;;;;-143.48;55.73;118439.88;5053739;28;20017;-28
2023/04/23 08:25:38;;;;;;;10.55;4.85;;;;;;;-143.48;54.11;118439.88;5053602;28;20024;-28
2023/04/23 08:28:04;;;;;;;13.27;5.28;;;;;;;-143.48;55.08;118439.88;5053489;28;20025;-28
2023/04/23 08:30:29;;;;;;;11.30;5.32;;;;;;;-143.48;58.07;118439.88;5053456;28;20526;-28
2023/04/23 08:32:55;;;;;;;10.25;4.90;;;;;;;-143.48;57.38;118439.88;5053511;28;20056;-28
2023/04/23 08:35:22;;;;;;;11.25;4.95;;;;;;;-143.48;55.98;118439.88;5053596;28;20017;-28
2023/04/23 08:37:47;;;;;;;13.90;5.18;;;;;;;-143.48;58.44;118439.88;5053388;28;20025;-29
2023/04/23 08:40:13;;;;;;;12.10;4.90;;;;;;;-143.48;58.84;118439.88;5053553;28;20040;-30
2023/04/23 08:42:51;;;;;;;11.27;4.72;;;;;;;-143.48;57.13;118439.88;5053242;28;20021;-28
2023/04/23 08:45:17;;;;;;;10.30;4.90;;;;;;;-143.48;57.27;118439.88;5053519;28;20524;-28
2023/04/23 08:47:43;;;;;;;10.05;4.20;;;;;;;-143.48;56.04;118439.88;5053015;28;20088;-28
2023/04/23 08:50:13;;;;;;;13.70;4.22;;;;;;;-143.48;55.73;118439.88;5053133;28;20021;-29
2023/04/23 08:52:41;;;;;;;8.55;4.00;;;;;;;-143.48;57.00;118439.88;5053341;28;20013;-29
2023/04/23 08:55:13;;;;;;;10.48;4.53;;;;;;;-143.48;55.65;118439.88;5055715;28;20029;-28
2023/04/23 08:57:40;;;;;;;8.15;3.65;;;;;;;-143.48;55.95;118439.88;5060403;28;20029;-29
2023/04/23 09:00:07;;;;;;;16.20;3.97;;;;;;;-143.48;55.74;118439.88;5060082;28;20100;-29
2023/04/23 09:02:40;;;;;;;9.23;3.60;;;;;;;-143.48;54.76;118439.88;5059197;28;20028;-29
2023/04/23 09:05:06;;;;;;;10.65;3.88;;;;;;;-143.48;53.28;118439.88;5059558;28;20021;-29
2023/04/23 09:07:32;;;;;;;14.80;4.00;;;;;;;-143.48;52.82;118439.88;5059597;28;20111;-29
2023/04/23 09:09:57;;;;;;;10.32;3.88;;;;;;;-143.48;55.19;118439.88;5059635;28;20060;-29
2023/04/23 09:12:23;;;;;;;11.38;3.70;;;;;;;-143.48;51.66;118439.88;5059485;28;20059;-29
2023/04/23 09:14:50;;;;;;;12.15;3.90;;;;;;;-143.48;52.34;118439.88;5059544;28;20380;-29
2023/04/23 09:17:17;;;;;;;13.98;4.00;;;;;;;-143.48;53.80;118439.88;5059813;28;20116;-29
2023/04/23 09:19:45;;;;;;;16.27;3.83;;;;;;;-143.48;52.98;118439.88;5059606;28;20039;-29
2023/04/23 09:22:10;;;;;;;11.45;4.03;;;;;;;-143.48;53.73;118439.88;5059342;28;20021;-29
2023/04/23 09:24:35;;;;;;;14.02;3.50;;;;;;;-143.48;53.83;118439.88;5059819;28;20028;-29
2023/04/23 09:27:02;;;;;;;12.73;3.35;;;;;;;-143.48;55.30;118439.88;5059727;28;20027;-29
2023/04/23 09:29:29;;;;;;;13.30;3.50;;;;;;;-143.48;56.79;118439.88;5059674;28;20078;-29
2023/04/23 09:32:08;;;;;;;9.90;3.40;;;;;;;-143.48;57.71;118439.88;5059542;28;20106;-28
2023/04/23 09:34:36;;;;;;;12.02;3.28;;;;;;;-143.48;55.38;118439.88;5059742;28;20052;-29
2023/04/23 09:37:02;;;;;;;11.75;3.20;;;;;;;-143.48;54.29;118439.88;5059425;28;20031;-28
2023/04/23 09:39:28;;;;;;;14.45;3.53;;;;;;;-143.48;56.97;118439.88;5059678;28;20048;-28
2023/04/23 09:42:01;;;;;;;15.45;3.70;;;;;;;-143.48;56.49;118439.88;5059454;28;20422;-29
2023/04/23 09:44:30;;;;;;;;;;;;;;;-143.48;54.93;118439.88;5060422;28;20367;-28
2023/04/23 09:46:55;;;;;;;12.98;3.58;;;;;;;-143.48;55.87;118439.88;5059301;28;19947;-29
2023/04/23 09:49:20;;;;;;;12.50;3.53;;;;;;;-143.48;55.41;118439.88;5059638;28;20459;-28
2023/04/23 09:51:47;;;;;;;14.30;3.55;;;;;;;-143.48;53.07;118439.88;5059396;28;20017;-29
2023/04/23 09:54:17;;;;;;;12.77;3.50;;;;;;;-143.48;50.99;118439.88;5058452;28;20391;-29
2023/04/23 09:56:44;;;;;;;9.60;2.88;;;;;;;-143.48;49.39;118439.88;5056142;28;20032;-29
2023/04/23 09:59:38;;;;;;;11.05;3.45;;;;;;;-143.48;54.92;118439.88;5057426;28;20029;-29
2023/04/23 10:02:06;;;;;;;15.98;3.38;;;;;;;-143.48;56.76;118439.88;5054249;28;20032;-29
2023/04/23 10:04:32;;;;;;;15.15;3.70;;;;;;;-143.48;55.02;118439.88;5059867;28;20025;-29
2023/04/23 10:07:00;;;;;;;15.77;3.35;;;;;;;-143.48;55.11;118439.88;5056660;28;20056;-29
2023/04/23 10:09:27;;;;;;;10.13;2.90;;;;;;;-143.48;55.90;118439.88;5056288;28;20025;-29
2023/04/23 10:11:55;;;;;;;12.40;3.20;;;;;;;-143.48;53.97;118439.88;5054630;28;20112;-29
2023/04/23 10:14:22;;;;;;;12.57;3.38;;;;;;;-143.48;55.01;118439.88;5056208;28;20402;-29
2023/04/23 10:16:51;;;;;;;17.90;3.13;;;;;;;-143.48;55.41;118439.88;5056416;28;20119;-29
2023/04/23 10:19:21;;;;;;;12.38;3.13;;;;;;;-143.48;51.06;118439.88;5055922;28;20105;-28
2023/04/23 10:21:54;;;;;;;9.18;2.83;;;;;;;-143.48;51.87;118439.88;5056273;28;20092;-29
2023/04/23 10:24:21;;;;;;;10.25;3.00;;;;;;;-143.48;51.53;118439.88;5056042;28;20013;-29
2023/04/23 10:26:48;;;;;;;8.88;2.67;;;;;;;-143.48;52.10;118439.88;5055823;28;20025;-29
2023/04/23 10:29:15;;;;;;;11.40;2.92;;;;;;;-143.48;53.66;118439.88;5055643;28;20031;-28
2023/04/23 10:31:41;;;;;;;8.32;2.60;;;;;;;-143.48;53.18;118439.88;5055589;28;20029;-29
2023/04/23 10:34:09;;;;;;;8.63;2.85;;;;;;;-143.48;53.93;118439.88;5055936;28;20025;-29
2023/04/23 10:36:38;;;;;;;13.70;3.03;;;;;;;-143.48;55.28;118439.88;5055559;28;20108;-29
2023/04/23 10:39:07;;;;;;;9.88;3.17;;;;;;;-143.48;53.66;118439.88;5055739;28;20043;-30
2023/04/23 10:41:41;;;;;;;8.95;2.97;;;;;;;-143.48;52.84;118439.88;5054465;28;20033;-29
2023/04/23 10:44:11;;;;;;;9.10;2.72;;;;;;;-143.48;50.75;118439.88;5055868;28;20025;-29
2023/04/23 10:46:36;;;;;;;10.68;2.65;;;;;;;-143.48;50.68;118439.88;5055252;28;20036;-30